createdAt,value
2023-04-09T00:00:54.558Z,1020.73
2023-04-09T00:01:54.551Z,1020.72
2023-04-09T00:02:54.611Z,1020.71
2023-04-09T00:03:54.509Z,1020.72
2023-04-09T00:04:54.451Z,1020.71
2023-04-09T00:05:54.425Z,1020.72
2023-04-09T00:06:54.403Z,1020.72
2023-04-09T00:07:54.381Z,1020.72
2023-04-09T00:08:54.513Z,1020.70
2023-04-09T00:09:54.324Z,1020.71
2023-04-09T00:10:54.297Z,1020.68
2023-04-09T00:11:54.272Z,1020.73
2023-04-09T00:12:54.277Z,1020.71
2023-04-09T00:13:54.227Z,1020.72
2023-04-09T00:14:54.188Z,1020.73
2023-04-09T00:15:54.226Z,1020.70
2023-04-09T00:16:54.146Z,1020.74
2023-04-09T00:17:54.168Z,1020.72
2023-04-09T00:18:54.229Z,1020.72
2023-04-09T00:19:54.073Z,1020.72
2023-04-09T00:20:54.042Z,1020.72
2023-04-09T00:21:54.025Z,1020.72
2023-04-09T00:22:54.011Z,1020.70
2023-04-09T00:23:53.987Z,1020.74
2023-04-09T00:24:53.940Z,1020.75
2023-04-09T00:25:53.921Z,1020.70
2023-04-09T00:26:53.891Z,1020.69
2023-04-09T00:27:53.870Z,1020.70
2023-04-09T00:28:53.955Z,1020.70
2023-04-09T00:29:53.824Z,1020.70
2023-04-09T00:30:53.786Z,1020.68
2023-04-09T00:31:53.806Z,1020.69
2023-04-09T00:32:53.800Z,1020.68
2023-04-09T00:33:53.714Z,1020.71
2023-04-09T00:34:53.684Z,1020.68
2023-04-09T00:35:53.693Z,1020.66
2023-04-09T00:36:53.641Z,1020.68
2023-04-09T00:37:53.613Z,1020.65
2023-04-09T00:38:53.776Z,1020.67
2023-04-09T00:39:53.567Z,1020.67
2023-04-09T00:40:53.531Z,1020.64
2023-04-09T00:41:53.508Z,1020.63
2023-04-09T00:42:53.478Z,1020.63
2023-04-09T00:43:53.468Z,1020.64
2023-04-09T00:44:53.451Z,1020.63
2023-04-09T00:45:53.436Z,1020.63
2023-04-09T00:46:53.375Z,1020.59
2023-04-09T00:47:53.454Z,1020.58
2023-04-09T00:48:53.519Z,1020.57
2023-04-09T00:49:53.335Z,1020.55
2023-04-09T00:50:53.273Z,1020.54
2023-04-09T00:51:53.260Z,1020.52
2023-04-09T00:52:53.231Z,1020.54
2023-04-09T00:53:53.201Z,1020.52
2023-04-09T00:54:53.184Z,1020.53
2023-04-09T00:55:53.155Z,1020.49
2023-04-09T00:56:53.129Z,1020.54
2023-04-09T00:57:53.099Z,1020.52
2023-04-09T00:58:53.222Z,1020.53
2023-04-09T00:59:53.043Z,1020.52
2023-04-09T01:00:53.076Z,1020.50
2023-04-09T01:01:53.035Z,1020.51
2023-04-09T01:02:53.138Z,1020.52
2023-04-09T01:03:52.983Z,1020.51
2023-04-09T01:04:52.918Z,1020.50
2023-04-09T01:05:52.894Z,1020.52
2023-04-09T01:06:52.856Z,1020.51
2023-04-09T01:07:52.843Z,1020.50
2023-04-09T01:08:52.941Z,1020.48
2023-04-09T01:09:52.784Z,1020.49
2023-04-09T01:10:52.759Z,1020.50
2023-04-09T01:11:52.739Z,1020.52
2023-04-09T01:12:52.700Z,1020.49
2023-04-09T01:13:52.681Z,1020.51
2023-04-09T01:14:52.652Z,1020.50
2023-04-09T01:15:52.628Z,1020.52
2023-04-09T01:16:52.643Z,1020.51
2023-04-09T01:17:52.637Z,1020.50
2023-04-09T01:18:52.674Z,1020.48
2023-04-09T01:19:52.532Z,1020.49
2023-04-09T01:20:52.500Z,1020.46
2023-04-09T01:21:52.484Z,1020.50
2023-04-09T01:22:52.447Z,1020.49
2023-04-09T01:23:52.437Z,1020.48
2023-04-09T01:24:52.395Z,1020.49
2023-04-09T01:25:52.376Z,1020.48
2023-04-09T01:26:52.341Z,1020.43
2023-04-09T01:27:52.325Z,1020.42
2023-04-09T01:28:52.393Z,1020.45
2023-04-09T01:29:52.269Z,1020.43
2023-04-09T01:30:52.290Z,1020.43
2023-04-09T01:31:52.228Z,1020.44
2023-04-09T01:32:52.299Z,1020.42
2023-04-09T01:33:52.175Z,1020.43
2023-04-09T01:34:52.143Z,1020.44
2023-04-09T01:35:52.136Z,1020.45
2023-04-09T01:36:52.085Z,1020.43
2023-04-09T01:37:52.060Z,1020.43
2023-04-09T01:38:52.294Z,1020.42
2023-04-09T01:39:52.013Z,1020.39
2023-04-09T01:40:51.982Z,1020.39
2023-04-09T01:41:51.956Z,1020.40
2023-04-09T01:42:51.945Z,1020.41
2023-04-09T01:43:51.907Z,1020.39
2023-04-09T01:44:51.877Z,1020.42
2023-04-09T01:45:51.872Z,1020.43
2023-04-09T01:46:51.868Z,1020.39
2023-04-09T01:47:51.828Z,1020.43
2023-04-09T01:48:52.022Z,1020.44
2023-04-09T01:49:51.752Z,1020.41
2023-04-09T01:50:51.729Z,1020.42
2023-04-09T01:51:51.700Z,1020.43
2023-04-09T01:52:51.669Z,1020.41
2023-04-09T01:53:51.661Z,1020.38
2023-04-09T01:54:51.621Z,1020.40
2023-04-09T01:55:51.613Z,1020.42
2023-04-09T01:56:51.565Z,1020.40
2023-04-09T01:57:51.541Z,1020.43
2023-04-09T01:58:51.703Z,1020.41
2023-04-09T01:59:51.497Z,1020.41
2023-04-09T02:00:51.460Z,1020.43
2023-04-09T02:01:51.549Z,1020.40
2023-04-09T02:02:51.596Z,1020.42
2023-04-09T02:03:51.667Z,1020.44
2023-04-09T02:04:51.381Z,1020.44
2023-04-09T02:05:51.354Z,1020.42
2023-04-09T02:06:51.322Z,1020.44
2023-04-09T02:07:51.289Z,1020.45
2023-04-09T02:08:51.546Z,1020.46
2023-04-09T02:09:51.226Z,1020.45
2023-04-09T02:10:51.208Z,1020.43
2023-04-09T02:11:51.182Z,1020.45
2023-04-09T02:12:51.153Z,1020.44
2023-04-09T02:13:51.126Z,1020.45
2023-04-09T02:14:51.110Z,1020.44
2023-04-09T02:15:51.152Z,1020.44
2023-04-09T02:16:51.055Z,1020.44
2023-04-09T02:17:51.043Z,1020.46
2023-04-09T02:18:51.246Z,1020.48
2023-04-09T02:19:50.971Z,1020.45
2023-04-09T02:20:50.970Z,1020.49
2023-04-09T02:21:50.917Z,1020.46
2023-04-09T02:22:50.899Z,1020.42
2023-04-09T02:23:50.882Z,1020.45
2023-04-09T02:24:50.846Z,1020.41
2023-04-09T02:25:50.810Z,1020.42
2023-04-09T02:26:50.795Z,1020.43
2023-04-09T02:27:50.775Z,1020.38
2023-04-09T02:28:51.018Z,1020.39
2023-04-09T02:29:50.708Z,1020.38
2023-04-09T02:30:50.740Z,1020.38
2023-04-09T02:31:50.660Z,1020.38
2023-04-09T02:32:50.692Z,1020.35
2023-04-09T02:33:50.603Z,1020.35
2023-04-09T02:34:50.582Z,1020.34
2023-04-09T02:35:50.626Z,1020.38
2023-04-09T02:36:50.552Z,1020.32
2023-04-09T02:37:50.500Z,1020.29
2023-04-09T02:38:50.790Z,1020.29
2023-04-09T02:39:50.452Z,1020.27
2023-04-09T02:40:50.435Z,1020.25
2023-04-09T02:41:50.402Z,1020.21
2023-04-09T02:42:50.377Z,1020.27
2023-04-09T02:43:50.343Z,1020.23
2023-04-09T02:44:50.334Z,1020.21
2023-04-09T02:45:50.289Z,1020.24
2023-04-09T02:46:50.284Z,1020.22
2023-04-09T02:47:50.245Z,1020.19
2023-04-09T02:48:50.504Z,1020.19
2023-04-09T02:49:50.194Z,1020.18
2023-04-09T02:50:50.167Z,1020.16
2023-04-09T02:51:50.134Z,1020.15
2023-04-09T02:52:50.142Z,1020.15
2023-04-09T02:53:50.082Z,1020.13
2023-04-09T02:54:50.059Z,1020.13
2023-04-09T02:55:50.040Z,1020.12
2023-04-09T02:56:50.027Z,1020.11
2023-04-09T02:57:49.978Z,1020.10
2023-04-09T02:58:50.127Z,1020.09
2023-04-09T02:59:49.928Z,1020.07
2023-04-09T03:00:49.903Z,1020.05
2023-04-09T03:01:49.939Z,1020.03
2023-04-09T03:02:49.937Z,1020.04
2023-04-09T03:03:49.901Z,1020.04
2023-04-09T03:04:49.796Z,1020.03
2023-04-09T03:05:49.767Z,1020.05
2023-04-09T03:06:49.755Z,1019.98
2023-04-09T03:07:49.734Z,1019.99
2023-04-09T03:08:49.865Z,1020.00
2023-04-09T03:09:49.664Z,1019.99
2023-04-09T03:10:49.656Z,1019.96
2023-04-09T03:11:49.617Z,1019.96
2023-04-09T03:12:49.589Z,1019.98
2023-04-09T03:13:49.557Z,1019.96
2023-04-09T03:14:49.553Z,1019.96
2023-04-09T03:15:49.577Z,1019.91
2023-04-09T03:16:49.483Z,1019.90
2023-04-09T03:17:49.514Z,1019.89
2023-04-09T03:18:49.677Z,1019.92
2023-04-09T03:19:49.404Z,1019.94
2023-04-09T03:20:49.370Z,1019.93
2023-04-09T03:21:49.376Z,1019.91
2023-04-09T03:22:49.331Z,1019.90
2023-04-09T03:23:49.295Z,1019.93
2023-04-09T03:24:49.297Z,1019.91
2023-04-09T03:25:49.242Z,1019.90
2023-04-09T03:26:49.234Z,1019.91
2023-04-09T03:27:49.186Z,1019.92
2023-04-09T03:28:49.194Z,1019.88
2023-04-09T03:29:49.131Z,1019.87
2023-04-09T03:30:49.126Z,1019.86
2023-04-09T03:31:49.084Z,1019.86
2023-04-09T03:32:49.109Z,1019.86
2023-04-09T03:33:49.040Z,1019.87
2023-04-09T03:34:49.013Z,1019.84
2023-04-09T03:35:49.001Z,1019.86
2023-04-09T03:36:48.962Z,1019.86
2023-04-09T03:37:48.940Z,1019.86
2023-04-09T03:38:48.929Z,1019.83
2023-04-09T03:39:48.870Z,1019.82
2023-04-09T03:40:48.876Z,1019.84
2023-04-09T03:41:48.824Z,1019.83
2023-04-09T03:42:48.798Z,1019.86
2023-04-09T03:43:48.770Z,1019.83
2023-04-09T03:44:48.753Z,1019.81
2023-04-09T03:45:48.717Z,1019.80
2023-04-09T03:46:48.771Z,1019.80
2023-04-09T03:47:48.683Z,1019.83
2023-04-09T03:48:48.643Z,1019.79
2023-04-09T03:49:48.615Z,1019.82
2023-04-09T03:50:48.600Z,1019.77
2023-04-09T03:51:48.558Z,1019.78
2023-04-09T03:52:48.539Z,1019.76
2023-04-09T03:53:48.514Z,1019.77
2023-04-09T03:54:48.486Z,1019.75
2023-04-09T03:55:48.455Z,1019.75
2023-04-09T03:56:48.458Z,1019.74
2023-04-09T03:57:48.399Z,1019.75
2023-04-09T03:58:48.380Z,1019.76
2023-04-09T03:59:48.342Z,1019.78
2023-04-09T04:00:48.320Z,1019.77
2023-04-09T04:01:48.383Z,1019.78
2023-04-09T04:02:48.405Z,1019.79
2023-04-09T04:03:48.362Z,1019.78
2023-04-09T04:04:48.346Z,1019.73
2023-04-09T04:05:48.184Z,1019.71
2023-04-09T04:06:48.174Z,1019.71
2023-04-09T04:07:48.129Z,1019.75
2023-04-09T04:08:48.122Z,1019.72
2023-04-09T04:09:48.095Z,1019.77
2023-04-09T04:10:48.057Z,1019.76
2023-04-09T04:11:48.019Z,1019.80
2023-04-09T04:12:48.081Z,1019.79
2023-04-09T04:13:48.001Z,1019.78
2023-04-09T04:14:47.952Z,1019.81
2023-04-09T04:15:47.931Z,1019.83
2023-04-09T04:16:47.893Z,1019.79
2023-04-09T04:17:47.902Z,1019.81
2023-04-09T04:18:47.851Z,1019.75
2023-04-09T04:19:47.823Z,1019.80
2023-04-09T04:20:47.807Z,1019.77
2023-04-09T04:21:47.764Z,1019.84
2023-04-09T04:22:47.737Z,1019.80
2023-04-09T04:23:47.713Z,1019.76
2023-04-09T04:24:47.684Z,1019.80
2023-04-09T04:25:47.658Z,1019.80
2023-04-09T04:26:47.630Z,1019.84
2023-04-09T04:27:47.599Z,1019.79
2023-04-09T04:28:47.603Z,1019.79
2023-04-09T04:29:47.549Z,1019.80
2023-04-09T04:30:47.523Z,1019.80
2023-04-09T04:31:47.569Z,1019.77
2023-04-09T04:32:47.524Z,1019.80
2023-04-09T04:33:47.459Z,1019.80
2023-04-09T04:34:47.427Z,1019.79
2023-04-09T04:35:47.394Z,1019.80
2023-04-09T04:36:47.366Z,1019.80
2023-04-09T04:37:47.341Z,1019.81
2023-04-09T04:38:47.308Z,1019.79
2023-04-09T04:39:47.286Z,1019.80
2023-04-09T04:40:47.262Z,1019.80
2023-04-09T04:41:47.237Z,1019.85
2023-04-09T04:42:47.221Z,1019.82
2023-04-09T04:43:47.177Z,1019.85
2023-04-09T04:44:47.178Z,1019.85
2023-04-09T04:45:47.187Z,1019.83
2023-04-09T04:46:47.110Z,1019.87
2023-04-09T04:47:47.114Z,1019.86
2023-04-09T04:48:47.044Z,1019.84
2023-04-09T04:49:47.023Z,1019.87
2023-04-09T04:50:47.001Z,1019.86
2023-04-09T04:51:46.973Z,1019.90
2023-04-09T04:52:46.946Z,1019.84
2023-04-09T04:53:46.911Z,1019.83
2023-04-09T04:54:46.892Z,1019.85
2023-04-09T04:55:46.868Z,1019.85
2023-04-09T04:56:46.850Z,1019.83
2023-04-09T04:57:46.806Z,1019.85
2023-04-09T04:58:46.782Z,1019.82
2023-04-09T04:59:46.754Z,1019.83
2023-04-09T05:00:46.798Z,1019.84
2023-04-09T05:01:46.708Z,1019.87
2023-04-09T05:02:46.788Z,1019.86
2023-04-09T05:03:46.761Z,1019.87
2023-04-09T05:04:46.632Z,1019.87
2023-04-09T05:05:46.601Z,1019.89
2023-04-09T05:06:46.574Z,1019.89
2023-04-09T05:07:46.539Z,1019.88
2023-04-09T05:08:46.519Z,1019.88
2023-04-09T05:09:46.511Z,1019.87
2023-04-09T05:10:46.467Z,1019.87
2023-04-09T05:11:46.444Z,1019.86
2023-04-09T05:12:46.418Z,1019.90
2023-04-09T05:13:46.379Z,1019.91
2023-04-09T05:14:46.363Z,1019.92
2023-04-09T05:15:46.331Z,1019.89
2023-04-09T05:16:46.362Z,1019.89
2023-04-09T05:17:46.286Z,1019.89
2023-04-09T05:18:46.250Z,1019.91
2023-04-09T05:19:46.221Z,1019.86
2023-04-09T05:20:46.195Z,1019.87
2023-04-09T05:21:47.232Z,1019.84
2023-04-09T05:22:46.145Z,1019.88
2023-04-09T05:23:46.116Z,1019.86
2023-04-09T05:24:46.086Z,1019.88
2023-04-09T05:25:46.066Z,1019.89
2023-04-09T05:26:46.039Z,1019.90
2023-04-09T05:27:46.043Z,1019.95
2023-04-09T05:28:45.983Z,1019.91
2023-04-09T05:29:45.959Z,1019.94
2023-04-09T05:30:45.964Z,1019.93
2023-04-09T05:31:45.904Z,1019.96
2023-04-09T05:32:45.912Z,1019.94
2023-04-09T05:33:45.850Z,1019.94
2023-04-09T05:34:45.829Z,1019.95
2023-04-09T05:35:45.820Z,1020.00
2023-04-09T05:36:45.788Z,1019.99
2023-04-09T05:37:45.752Z,1019.95
2023-04-09T05:38:45.728Z,1019.98
2023-04-09T05:39:45.700Z,1019.97
2023-04-09T05:40:45.667Z,1020.00
2023-04-09T05:41:45.636Z,1019.99
2023-04-09T05:42:45.616Z,1019.99
2023-04-09T05:43:45.591Z,1020.00
2023-04-09T05:44:45.572Z,1020.01
2023-04-09T05:45:45.608Z,1020.00
2023-04-09T05:46:45.513Z,1020.02
2023-04-09T05:47:45.515Z,1020.00
2023-04-09T05:48:45.491Z,1019.97
2023-04-09T05:49:45.433Z,1019.96
2023-04-09T05:50:54.575Z,1019.97
2023-04-09T05:51:45.384Z,1019.98
2023-04-09T05:52:45.353Z,1019.96
2023-04-09T05:53:45.322Z,1019.99
2023-04-09T05:54:45.312Z,1020.00
2023-04-09T05:55:45.271Z,1020.01
2023-04-09T05:56:45.255Z,1019.99
2023-04-09T05:57:45.214Z,1020.02
2023-04-09T05:58:45.202Z,1019.99
2023-04-09T05:59:45.166Z,1020.03
2023-04-09T06:00:45.138Z,1020.03
2023-04-09T06:01:45.109Z,1020.06
2023-04-09T06:02:45.190Z,1020.06
2023-04-09T06:03:45.232Z,1020.08
2023-04-09T06:04:45.085Z,1020.11
2023-04-09T06:05:45.004Z,1020.12
2023-04-09T06:06:44.986Z,1020.10
2023-04-09T06:07:44.950Z,1020.07
2023-04-09T06:08:44.951Z,1020.09
2023-04-09T06:09:44.900Z,1020.07
2023-04-09T06:10:44.879Z,1020.06
2023-04-09T06:11:44.865Z,1020.10
2023-04-09T06:12:44.829Z,1020.08
2023-04-09T06:13:44.811Z,1020.08
2023-04-09T06:14:44.769Z,1020.08
2023-04-09T06:15:44.781Z,1020.03
2023-04-09T06:16:44.728Z,1020.05
2023-04-09T06:17:44.715Z,1020.04
2023-04-09T06:18:44.661Z,1020.05
2023-04-09T06:19:44.642Z,1020.04
2023-04-09T06:20:44.625Z,1020.05
2023-04-09T06:21:44.608Z,1020.10
2023-04-09T06:22:44.552Z,1020.08
2023-04-09T06:23:44.533Z,1020.13
2023-04-09T06:24:44.499Z,1020.13
2023-04-09T06:25:44.478Z,1020.12
2023-04-09T06:26:44.454Z,1020.19
2023-04-09T06:27:44.422Z,1020.15
2023-04-09T06:28:44.398Z,1020.12
2023-04-09T06:29:44.376Z,1020.17
2023-04-09T06:30:44.456Z,1020.14
2023-04-09T06:31:44.320Z,1020.17
2023-04-09T06:32:53.859Z,1020.16
2023-04-09T06:33:44.259Z,1020.16
2023-04-09T06:34:44.250Z,1020.16
2023-04-09T06:35:44.226Z,1020.21
2023-04-09T06:36:44.206Z,1020.19
2023-04-09T06:37:44.169Z,1020.20
2023-04-09T06:38:44.130Z,1020.20
2023-04-09T06:39:53.954Z,1020.22
2023-04-09T06:40:44.082Z,1020.24
2023-04-09T06:41:44.061Z,1020.19
2023-04-09T06:42:44.028Z,1020.26
2023-04-09T06:43:43.999Z,1020.26
2023-04-09T06:44:43.987Z,1020.27
2023-04-09T06:45:43.948Z,1020.27
2023-04-09T06:46:43.931Z,1020.30
2023-04-09T06:47:43.914Z,1020.30
2023-04-09T06:48:43.866Z,1020.32
2023-04-09T06:49:43.845Z,1020.32
2023-04-09T06:50:43.812Z,1020.35
2023-04-09T06:51:43.784Z,1020.31
2023-04-09T06:52:43.827Z,1020.33
2023-04-09T06:53:43.817Z,1020.27
2023-04-09T06:54:43.739Z,1020.31
2023-04-09T06:55:43.678Z,1020.26
2023-04-09T06:56:43.751Z,1020.23
2023-04-09T06:57:43.716Z,1020.26
2023-04-09T06:58:43.604Z,1020.28
2023-04-09T06:59:43.579Z,1020.31
2023-04-09T07:00:43.547Z,1020.28
2023-04-09T07:01:43.640Z,1020.29
2023-04-09T07:02:43.750Z,1020.29
2023-04-09T07:03:43.582Z,1020.30
2023-04-09T07:04:43.648Z,1020.32
2023-04-09T07:05:43.432Z,1020.35
2023-04-09T07:06:43.393Z,1020.32
2023-04-09T07:07:43.372Z,1020.33
2023-04-09T07:08:43.394Z,1020.32
2023-04-09T07:09:43.316Z,1020.35
2023-04-09T07:10:43.303Z,1020.37
2023-04-09T07:11:43.275Z,1020.33
2023-04-09T07:12:43.237Z,1020.32
2023-04-09T07:13:43.218Z,1020.34
2023-04-09T07:14:43.186Z,1020.31
2023-04-09T07:15:43.245Z,1020.36
2023-04-09T07:16:43.139Z,1020.32
2023-04-09T07:17:43.115Z,1020.32
2023-04-09T07:18:43.084Z,1020.40
2023-04-09T07:19:43.057Z,1020.37
2023-04-09T07:20:43.037Z,1020.35
2023-04-09T07:21:43.030Z,1020.39
2023-04-09T07:22:42.988Z,1020.41
2023-04-09T07:23:43.110Z,1020.41
2023-04-09T07:24:42.950Z,1020.45
2023-04-09T07:25:42.901Z,1020.45
2023-04-09T07:26:42.879Z,1020.45
2023-04-09T07:27:42.855Z,1020.43
2023-04-09T07:28:42.823Z,1020.45
2023-04-09T07:29:42.804Z,1020.44
2023-04-09T07:30:42.772Z,1020.41
2023-04-09T07:31:42.789Z,1020.45
2023-04-09T07:32:42.792Z,1020.46
2023-04-09T07:33:42.696Z,1020.45
2023-04-09T07:34:42.668Z,1020.46
2023-04-09T07:35:42.656Z,1020.43
2023-04-09T07:36:42.934Z,1020.47
2023-04-09T07:37:42.592Z,1020.48
2023-04-09T07:38:42.561Z,1020.46
2023-04-09T07:39:42.542Z,1020.48
2023-04-09T07:40:42.533Z,1020.50
2023-04-09T07:41:42.491Z,1020.46
2023-04-09T07:42:42.464Z,1020.47
2023-04-09T07:43:42.444Z,1020.48
2023-04-09T07:44:42.410Z,1020.50
2023-04-09T07:45:42.400Z,1020.47
2023-04-09T07:46:42.431Z,1020.50
2023-04-09T07:47:42.373Z,1020.50
2023-04-09T07:48:42.304Z,1020.50
2023-04-09T07:49:42.291Z,1020.48
2023-04-09T07:50:42.256Z,1020.44
2023-04-09T07:51:42.237Z,1020.46
2023-04-09T07:52:42.206Z,1020.46
2023-04-09T07:53:42.198Z,1020.42
2023-04-09T07:54:42.158Z,1020.43
2023-04-09T07:55:42.141Z,1020.47
2023-04-09T07:56:42.141Z,1020.46
2023-04-09T07:57:42.085Z,1020.43
2023-04-09T07:58:42.054Z,1020.44
2023-04-09T07:59:42.035Z,1020.47
2023-04-09T08:00:42.006Z,1020.45
2023-04-09T08:01:42.034Z,1020.46
2023-04-09T08:02:42.287Z,1020.47
2023-04-09T08:03:42.053Z,1020.46
2023-04-09T08:04:42.116Z,1020.45
2023-04-09T08:05:41.889Z,1020.50
2023-04-09T08:06:41.881Z,1020.47
2023-04-09T08:07:41.835Z,1020.46
2023-04-09T08:08:41.819Z,1020.48
2023-04-09T08:09:41.783Z,1020.48
2023-04-09T08:10:41.758Z,1020.47
2023-04-09T08:11:41.733Z,1020.44
2023-04-09T08:12:41.740Z,1020.44
2023-04-09T08:13:41.700Z,1020.42
2023-04-09T08:14:41.670Z,1020.42
2023-04-09T08:15:41.630Z,1020.40
2023-04-09T08:16:41.647Z,1020.41
2023-04-09T08:17:41.631Z,1020.46
2023-04-09T08:18:41.556Z,1020.45
2023-04-09T08:19:42.228Z,1020.46
2023-04-09T08:20:41.504Z,1020.44
2023-04-09T08:21:41.482Z,1020.42
2023-04-09T08:22:41.463Z,1020.44
2023-04-09T08:23:41.439Z,1020.45
2023-04-09T08:24:41.406Z,1020.43
2023-04-09T08:25:41.384Z,1020.46
2023-04-09T08:26:41.366Z,1020.43
2023-04-09T08:27:41.349Z,1020.42
2023-04-09T08:28:41.329Z,1020.44
2023-04-09T08:29:41.286Z,1020.48
2023-04-09T08:30:41.261Z,1020.50
2023-04-09T08:31:41.266Z,1020.46
2023-04-09T08:32:41.251Z,1020.46
2023-04-09T08:33:41.196Z,1020.46
2023-04-09T08:34:41.160Z,1020.45
2023-04-09T08:35:41.135Z,1020.48
2023-04-09T08:36:41.151Z,1020.43
2023-04-09T08:37:41.092Z,1020.45
2023-04-09T08:38:41.062Z,1020.48
2023-04-09T08:39:41.048Z,1020.43
2023-04-09T08:40:41.014Z,1020.45
2023-04-09T08:41:40.996Z,1020.45
2023-04-09T08:42:40.964Z,1020.49
2023-04-09T08:43:56.906Z,1020.49
2023-04-09T08:44:40.945Z,1020.52
2023-04-09T08:45:40.918Z,1020.54
2023-04-09T08:46:40.868Z,1020.54
2023-04-09T08:47:40.869Z,1020.51
2023-04-09T08:48:40.903Z,1020.52
2023-04-09T08:49:40.805Z,1020.51
2023-04-09T08:50:40.774Z,1020.48
2023-04-09T08:51:40.752Z,1020.49
2023-04-09T08:52:40.715Z,1020.51
2023-04-09T08:53:40.699Z,1020.48
2023-04-09T08:54:40.697Z,1020.47
2023-04-09T08:55:40.653Z,1020.47
2023-04-09T08:56:40.624Z,1020.46
2023-04-09T08:57:40.608Z,1020.49
2023-04-09T08:58:40.576Z,1020.46
2023-04-09T08:59:40.553Z,1020.46
2023-04-09T09:00:40.548Z,1020.47
2023-04-09T09:01:40.614Z,1020.41
2023-04-09T09:02:40.631Z,1020.42
2023-04-09T09:03:40.546Z,1020.41
2023-04-09T09:04:40.439Z,1020.43
2023-04-09T09:05:40.431Z,1020.42
2023-04-09T09:06:40.394Z,1020.39
2023-04-09T09:07:40.379Z,1020.37
2023-04-09T09:08:40.336Z,1020.38
2023-04-09T09:09:40.310Z,1020.44
2023-04-09T09:10:40.282Z,1020.44
2023-04-09T09:11:40.279Z,1020.42
2023-04-09T09:12:40.230Z,1020.42
2023-04-09T09:13:40.253Z,1020.39
2023-04-09T09:14:40.191Z,1020.42
2023-04-09T09:15:40.165Z,1020.42
2023-04-09T09:16:40.347Z,1020.38
2023-04-09T09:17:40.133Z,1020.35
2023-04-09T09:18:40.096Z,1020.38
2023-04-09T09:19:40.073Z,1020.37
2023-04-09T09:20:40.045Z,1020.41
2023-04-09T09:21:40.040Z,1020.35
2023-04-09T09:22:39.995Z,1020.36
2023-04-09T09:23:39.975Z,1020.41
2023-04-09T09:24:39.951Z,1020.41
2023-04-09T09:25:39.930Z,1020.38
2023-04-09T09:26:39.903Z,1020.42
2023-04-09T09:27:39.879Z,1020.41
2023-04-09T09:28:39.854Z,1020.39
2023-04-09T09:29:39.836Z,1020.39
2023-04-09T09:30:39.820Z,1020.35
2023-04-09T09:31:39.791Z,1020.33
2023-04-09T09:32:39.807Z,1020.35
2023-04-09T09:33:39.737Z,1020.33
2023-04-09T09:34:39.717Z,1020.39
2023-04-09T09:35:39.711Z,1020.33
2023-04-09T09:36:39.673Z,1020.35
2023-04-09T09:37:39.645Z,1020.35
2023-04-09T09:38:39.620Z,1020.33
2023-04-09T09:39:39.602Z,1020.33
2023-04-09T09:40:39.577Z,1020.33
2023-04-09T09:41:39.563Z,1020.31
2023-04-09T09:42:39.547Z,1020.28
2023-04-09T09:43:39.520Z,1020.28
2023-04-09T09:44:39.483Z,1020.26
2023-04-09T09:45:39.459Z,1020.27
2023-04-09T09:46:39.558Z,1020.27
2023-04-09T09:47:39.421Z,1020.28
2023-04-09T09:48:39.405Z,1020.25
2023-04-09T09:49:39.375Z,1020.28
2023-04-09T09:50:39.340Z,1020.30
2023-04-09T09:51:39.327Z,1020.25
2023-04-09T09:52:39.296Z,1020.24
2023-04-09T09:53:39.285Z,1020.16
2023-04-09T09:54:39.247Z,1020.19
2023-04-09T09:55:39.231Z,1020.22
2023-04-09T09:56:39.202Z,1020.27
2023-04-09T09:57:39.179Z,1020.29
2023-04-09T09:58:39.163Z,1020.24
2023-04-09T09:59:39.134Z,1020.22
2023-04-09T10:00:39.115Z,1020.20
2023-04-09T10:01:39.143Z,1020.14
2023-04-09T10:02:39.130Z,1020.11
2023-04-09T10:03:39.049Z,1020.09
2023-04-09T10:04:39.089Z,1020.15
2023-04-09T10:05:38.997Z,1020.16
2023-04-09T10:06:38.983Z,1020.13
2023-04-09T10:07:38.955Z,1020.11
2023-04-09T10:08:38.920Z,1020.08
2023-04-09T10:09:38.900Z,1020.11
2023-04-09T10:10:38.877Z,1020.09
2023-04-09T10:11:38.853Z,1020.11
2023-04-09T10:12:38.834Z,1019.97
2023-04-09T10:13:38.813Z,1020.03
2023-04-09T10:14:38.776Z,1019.97
2023-04-09T10:15:38.825Z,1019.98
2023-04-09T10:16:38.742Z,1020.00
2023-04-09T10:17:38.907Z,1020.03
2023-04-09T10:18:38.681Z,1020.05
2023-04-09T10:19:38.671Z,1020.05
2023-04-09T10:20:38.650Z,1019.94
2023-04-09T10:21:38.802Z,1020.05
2023-04-09T10:22:38.593Z,1019.94
2023-04-09T10:23:38.579Z,1020.00
2023-04-09T10:24:38.553Z,1019.97
2023-04-09T10:25:38.533Z,1020.04
2023-04-09T10:26:38.505Z,1019.99
2023-04-09T10:27:38.483Z,1019.95
2023-04-09T10:28:38.459Z,1019.95
2023-04-09T10:29:38.431Z,1019.97
2023-04-09T10:30:38.416Z,1019.94
2023-04-09T10:31:38.461Z,1019.98
2023-04-09T10:32:38.381Z,1019.90
2023-04-09T10:33:38.336Z,1019.84
2023-04-09T10:34:38.312Z,1019.78
2023-04-09T10:35:38.313Z,1019.75
2023-04-09T10:36:38.313Z,1019.76
2023-04-09T10:37:38.242Z,1019.75
2023-04-09T10:38:38.226Z,1019.71
2023-04-09T10:39:38.197Z,1019.66
2023-04-09T10:40:38.181Z,1019.75
2023-04-09T10:41:38.158Z,1019.77
2023-04-09T10:42:38.132Z,1019.76
2023-04-09T10:43:38.110Z,1019.78
2023-04-09T10:44:38.099Z,1019.60
2023-04-09T10:45:38.059Z,1019.62
2023-04-09T10:46:38.088Z,1019.78
2023-04-09T10:47:38.044Z,1019.67
2023-04-09T10:48:38.007Z,1019.70
2023-04-09T10:49:37.970Z,1019.71
2023-04-09T10:50:37.946Z,1019.73
2023-04-09T10:51:37.921Z,1019.78
2023-04-09T10:52:37.927Z,1019.77
2023-04-09T10:53:37.876Z,1019.74
2023-04-09T10:54:37.859Z,1019.70
2023-04-09T10:55:37.854Z,1019.74
2023-04-09T10:56:37.816Z,1019.70
2023-04-09T10:57:37.789Z,1019.74
2023-04-09T10:58:37.771Z,1019.75
2023-04-09T10:59:37.737Z,1019.69
2023-04-09T11:00:37.720Z,1019.66
2023-04-09T11:01:37.851Z,1019.71
2023-04-09T11:02:37.923Z,1019.72
2023-04-09T11:03:37.676Z,1019.70
2023-04-09T11:04:37.783Z,1019.66
2023-04-09T11:05:37.610Z,1019.71
2023-04-09T11:06:37.577Z,1019.65
2023-04-09T11:07:37.556Z,1019.68
2023-04-09T11:08:37.563Z,1019.71
2023-04-09T11:09:37.503Z,1019.74
2023-04-09T11:10:37.495Z,1019.69
2023-04-09T11:11:37.464Z,1019.64
2023-04-09T11:12:37.448Z,1019.61
2023-04-09T11:13:37.412Z,1019.66
2023-04-09T11:14:37.396Z,1019.68
2023-04-09T11:15:37.372Z,1019.67
2023-04-09T11:16:37.383Z,1019.65
2023-04-09T11:17:37.405Z,1019.62
2023-04-09T11:18:37.510Z,1019.58
2023-04-09T11:19:37.286Z,1019.56
2023-04-09T11:20:37.266Z,1019.48
2023-04-09T11:21:37.232Z,1019.53
2023-04-09T11:22:37.214Z,1019.58
2023-04-09T11:23:37.204Z,1019.58
2023-04-09T11:24:37.200Z,1019.52
2023-04-09T11:25:37.137Z,1019.45
2023-04-09T11:26:37.143Z,1019.46
2023-04-09T11:27:37.096Z,1019.50
2023-04-09T11:28:37.069Z,1019.54
2023-04-09T11:29:37.052Z,1019.50
2023-04-09T11:30:37.026Z,1019.45
2023-04-09T11:31:37.036Z,1019.47
2023-04-09T11:32:37.006Z,1019.44
2023-04-09T11:33:36.963Z,1019.45
2023-04-09T11:34:36.941Z,1019.46
2023-04-09T11:35:36.926Z,1019.49
2023-04-09T11:36:36.891Z,1019.39
2023-04-09T11:37:36.861Z,1019.40
2023-04-09T11:38:36.844Z,1019.39
2023-04-09T11:39:36.818Z,1019.39
2023-04-09T11:40:36.821Z,1019.39
2023-04-09T11:41:36.772Z,1019.42
2023-04-09T11:42:36.750Z,1019.42
2023-04-09T11:43:36.730Z,1019.40
2023-04-09T11:44:36.709Z,1019.48
2023-04-09T11:45:36.681Z,1019.40
2023-04-09T11:46:36.720Z,1019.40
2023-04-09T11:47:36.669Z,1019.44
2023-04-09T11:48:36.620Z,1019.40
2023-04-09T11:49:36.594Z,1019.43
2023-04-09T11:50:36.573Z,1019.33
2023-04-09T11:51:36.540Z,1019.36
2023-04-09T11:52:36.529Z,1019.31
2023-04-09T11:53:36.501Z,1019.27
2023-04-09T11:54:36.481Z,1019.26
2023-04-09T11:55:36.474Z,1019.29
2023-04-09T11:56:36.468Z,1019.32
2023-04-09T11:57:36.404Z,1019.35
2023-04-09T11:58:36.404Z,1019.32
2023-04-09T11:59:36.363Z,1019.33
2023-04-09T12:00:36.344Z,1019.37
2023-04-09T12:01:36.390Z,1019.35
2023-04-09T12:02:36.451Z,1019.36
2023-04-09T12:03:36.387Z,1019.32
2023-04-09T12:04:36.369Z,1019.40
2023-04-09T12:05:36.594Z,1019.39